createdAt,value
2023-01-19T00:00:53.806Z,22.50
2023-01-19T00:03:21.762Z,22.42
2023-01-19T00:05:48.953Z,22.08
2023-01-19T00:08:16.772Z,21.67
2023-01-19T00:10:46.195Z,19.88
2023-01-19T00:13:14.129Z,26.33
2023-01-19T00:15:41.162Z,30.52
2023-01-19T00:18:10.591Z,17.40
2023-01-19T00:20:38.689Z,17.73
2023-01-19T00:23:07.597Z,23.70
2023-01-19T00:25:34.880Z,19.45
2023-01-19T00:28:02.133Z,18.58
2023-01-19T00:30:29.550Z,19.65
2023-01-19T00:32:56.881Z,21.55
2023-01-19T00:35:24.008Z,18.45
2023-01-19T00:37:51.375Z,20.25
2023-01-19T00:40:18.806Z,18.83
2023-01-19T00:42:48.302Z,23.42
2023-01-19T00:45:18.747Z,25.08
2023-01-19T00:47:47.662Z,22.05
2023-01-19T00:50:16.888Z,21.73
2023-01-19T00:52:45.381Z,26.70
2023-01-19T00:55:14.670Z,25.77
2023-01-19T00:57:42.380Z,25.67
2023-01-19T01:00:13.062Z,25.23
2023-01-19T01:02:41.128Z,21.23
2023-01-19T01:05:09.666Z,18.67
2023-01-19T01:07:45.359Z,18.63
2023-01-19T01:10:14.101Z,17.38
2023-01-19T01:12:41.855Z,19.13
2023-01-19T01:15:23.171Z,19.50
2023-01-19T01:17:53.172Z,18.45
2023-01-19T01:20:27.089Z,22.15
2023-01-19T01:22:55.609Z,21.13
2023-01-19T01:25:24.255Z,19.80
2023-01-19T01:27:51.691Z,15.77
2023-01-19T01:30:19.696Z,18.95
2023-01-19T01:32:46.937Z,17.52
2023-01-19T01:35:14.732Z,15.95
2023-01-19T01:37:42.798Z,20.58
2023-01-19T01:40:14.144Z,23.33
2023-01-19T01:42:42.504Z,17.50
2023-01-19T01:45:33.971Z,17.23
2023-01-19T01:48:30.884Z,19.70
2023-01-19T01:51:18.969Z,17.73
2023-01-19T01:53:49.289Z,18.58
2023-01-19T01:56:21.663Z,20.35
2023-01-19T01:58:49.816Z,17.42
2023-01-19T02:01:35.427Z,18.80
2023-01-19T02:04:02.892Z,21.65
2023-01-19T02:06:31.238Z,17.65
2023-01-19T02:09:27.379Z,16.20
2023-01-19T02:12:13.808Z,17.20
2023-01-19T02:14:40.838Z,18.13
2023-01-19T02:17:07.937Z,16.63
2023-01-19T02:19:42.942Z,16.15
2023-01-19T02:22:30.349Z,18.10
2023-01-19T02:24:57.652Z,20.52
2023-01-19T02:27:24.717Z,17.02
2023-01-19T02:29:51.803Z,17.60
2023-01-19T02:32:18.786Z,19.85
2023-01-19T02:34:45.829Z,21.52
2023-01-19T02:37:15.644Z,22.65
2023-01-19T02:39:47.563Z,15.30
2023-01-19T02:42:28.350Z,16.95
2023-01-19T02:44:56.913Z,18.65
2023-01-19T02:47:24.546Z,19.77
2023-01-19T02:49:58.101Z,16.15
2023-01-19T02:52:26.984Z,19.25
2023-01-19T02:54:54.238Z,21.05
2023-01-19T02:57:35.553Z,17.27
2023-01-19T03:00:14.808Z,16.90
2023-01-19T03:03:15.333Z,14.35
2023-01-19T03:06:01.614Z,19.77
2023-01-19T03:09:15.963Z,21.20
2023-01-19T03:11:49.185Z,16.80
2023-01-19T03:14:23.564Z,20.10
2023-01-19T03:17:05.225Z,17.83
2023-01-19T03:19:34.167Z,19.25
2023-01-19T03:22:29.413Z,16.35
2023-01-19T03:25:01.226Z,15.10
2023-01-19T03:27:41.210Z,19.63
2023-01-19T03:30:15.547Z,18.23
2023-01-19T03:32:51.615Z,17.40
2023-01-19T03:35:22.031Z,18.65
2023-01-19T03:37:53.221Z,19.05
2023-01-19T03:40:21.139Z,14.90
2023-01-19T03:42:50.370Z,16.27
2023-01-19T03:45:18.297Z,16.98
2023-01-19T03:47:45.718Z,22.05
2023-01-19T03:50:20.733Z,22.48
2023-01-19T03:53:10.120Z,17.83
2023-01-19T03:55:40.291Z,19.77
2023-01-19T03:58:07.781Z,19.80
2023-01-19T04:00:36.613Z,21.60
2023-01-19T04:03:05.342Z,17.38
2023-01-19T04:05:33.233Z,19.63
2023-01-19T04:08:00.778Z,18.13
2023-01-19T04:10:27.785Z,18.67
2023-01-19T04:12:59.721Z,15.23
2023-01-19T04:15:27.754Z,16.90
2023-01-19T04:17:57.133Z,22.27
2023-01-19T04:20:24.420Z,18.40
2023-01-19T04:22:51.388Z,16.30
2023-01-19T04:25:18.392Z,18.98
2023-01-19T04:27:45.334Z,19.38
2023-01-19T04:30:12.880Z,22.35
2023-01-19T04:32:39.945Z,17.50
2023-01-19T04:35:07.094Z,18.20
2023-01-19T04:37:34.083Z,30.73
2023-01-19T04:40:01.105Z,20.02
2023-01-19T04:42:28.044Z,25.27
2023-01-19T04:44:55.093Z,22.92
2023-01-19T04:47:22.041Z,26.65
2023-01-19T04:49:49.082Z,20.55
2023-01-19T04:52:16.068Z,25.52
2023-01-19T04:54:43.079Z,33.67
2023-01-19T04:57:10.000Z,20.48
2023-01-19T04:59:36.985Z,26.85
2023-01-19T05:02:03.939Z,25.30
2023-01-19T05:04:30.970Z,23.15
2023-01-19T05:06:58.407Z,20.67
2023-01-19T05:09:26.470Z,24.85
2023-01-19T05:11:53.451Z,26.90
2023-01-19T05:14:20.544Z,25.00
2023-01-19T05:16:47.470Z,25.45
2023-01-19T05:19:14.641Z,27.58
2023-01-19T05:21:41.615Z,24.45
2023-01-19T05:24:08.976Z,22.67
2023-01-19T05:26:35.936Z,26.35
2023-01-19T05:29:02.946Z,26.75
2023-01-19T05:31:29.956Z,20.88
2023-01-19T05:33:56.959Z,26.48
2023-01-19T05:36:23.908Z,23.65
2023-01-19T05:38:51.226Z,28.83
2023-01-19T05:41:18.201Z,26.85
2023-01-19T05:43:45.203Z,29.73
2023-01-19T05:46:12.196Z,26.80
2023-01-19T05:48:40.057Z,25.65
2023-01-19T05:51:07.856Z,23.55
2023-01-19T05:53:34.809Z,22.48
2023-01-19T05:56:06.069Z,21.10
2023-01-19T05:58:34.537Z,22.10
2023-01-19T06:01:06.352Z,22.73
2023-01-19T06:03:34.865Z,22.02
2023-01-19T06:06:02.731Z,24.00
2023-01-19T06:08:30.338Z,26.25
2023-01-19T06:10:57.356Z,31.95
2023-01-19T06:13:24.376Z,30.02
2023-01-19T06:15:57.959Z,29.85
2023-01-19T06:18:25.001Z,31.20
2023-01-19T06:20:58.515Z,25.73
2023-01-19T06:23:31.444Z,26.77
2023-01-19T06:25:58.696Z,30.50
2023-01-19T06:28:25.720Z,24.95
2023-01-19T06:30:55.177Z,23.35
2023-01-19T06:33:23.166Z,23.25
2023-01-19T06:35:51.156Z,22.55
2023-01-19T06:38:21.318Z,26.80
2023-01-19T06:40:58.524Z,26.83
2023-01-19T06:43:26.581Z,23.75
2023-01-19T06:45:53.899Z,28.23
2023-01-19T06:48:21.027Z,21.08
2023-01-19T06:50:48.733Z,28.30
2023-01-19T06:53:16.983Z,22.70
2023-01-19T06:55:44.524Z,24.02
2023-01-19T06:58:11.734Z,26.52
2023-01-19T07:00:38.825Z,23.67
2023-01-19T07:03:09.169Z,22.52
2023-01-19T07:05:36.637Z,18.95
2023-01-19T07:08:04.418Z,20.17
2023-01-19T07:11:26.263Z,22.42
2023-01-19T07:13:19.051Z,18.05
2023-01-19T07:15:46.088Z,22.00
2023-01-19T07:18:13.237Z,22.77
2023-01-19T07:20:40.216Z,21.27
2023-01-19T07:23:07.163Z,25.88
2023-01-19T07:25:34.703Z,19.90
2023-01-19T07:28:02.228Z,25.80
2023-01-19T07:30:29.614Z,31.70
2023-01-19T07:33:06.919Z,26.83
2023-01-19T07:35:36.290Z,33.08
2023-01-19T07:38:03.317Z,33.40
2023-01-19T07:40:30.442Z,27.25
2023-01-19T07:42:57.429Z,28.38
2023-01-19T07:45:24.406Z,27.55
2023-01-19T07:47:51.819Z,25.90
2023-01-19T07:50:21.452Z,26.35
2023-01-19T07:52:53.497Z,25.60
2023-01-19T07:55:21.541Z,24.27
2023-01-19T07:57:51.095Z,24.58
2023-01-19T08:00:24.754Z,24.90
2023-01-19T08:02:52.675Z,25.67
2023-01-19T08:05:21.233Z,23.30
2023-01-19T08:07:48.512Z,22.88
2023-01-19T08:10:16.700Z,25.63
2023-01-19T08:12:43.974Z,27.42
2023-01-19T08:15:11.357Z,28.17
2023-01-19T08:17:38.781Z,25.63
2023-01-19T08:20:06.741Z,21.70
2023-01-19T08:22:33.785Z,22.05
2023-01-19T08:25:00.710Z,28.45
2023-01-19T08:27:27.769Z,25.40
2023-01-19T08:29:54.796Z,26.45
2023-01-19T08:32:21.815Z,25.10
2023-01-19T08:34:48.747Z,22.50
2023-01-19T08:37:15.797Z,25.08
2023-01-19T08:39:42.739Z,25.88
2023-01-19T08:42:09.807Z,29.70
2023-01-19T08:44:41.428Z,24.63
2023-01-19T08:47:17.348Z,26.27
2023-01-19T08:49:44.356Z,26.10
2023-01-19T08:52:11.331Z,22.13
2023-01-19T08:54:38.533Z,26.48
2023-01-19T08:57:05.564Z,23.05
2023-01-19T08:59:32.513Z,28.85
2023-01-19T09:01:59.915Z,31.90
2023-01-19T09:04:26.985Z,27.23
2023-01-19T09:06:53.973Z,25.75
2023-01-19T09:09:20.964Z,30.10
2023-01-19T09:11:47.972Z,25.92
2023-01-19T09:14:14.924Z,28.08
2023-01-19T09:16:42.019Z,22.02
2023-01-19T09:19:09.286Z,29.05
2023-01-19T09:21:36.297Z,22.92
2023-01-19T09:24:03.333Z,27.00
2023-01-19T09:26:32.910Z,27.85
2023-01-19T09:29:00.295Z,27.48
2023-01-19T09:31:27.429Z,23.33
2023-01-19T09:33:54.420Z,28.65
2023-01-19T09:36:21.350Z,27.85
2023-01-19T09:38:48.310Z,22.98
2023-01-19T09:41:21.973Z,22.55
2023-01-19T09:43:57.195Z,23.73
2023-01-19T09:46:39.117Z,25.50
2023-01-19T09:49:13.834Z,23.77
2023-01-19T09:51:44.979Z,25.52
2023-01-19T09:54:27.692Z,25.33
2023-01-19T09:56:54.737Z,27.38
2023-01-19T09:59:31.253Z,20.92
2023-01-19T10:02:04.318Z,26.33
2023-01-19T10:04:41.674Z,23.40
2023-01-19T10:07:23.420Z,29.95
2023-01-19T10:10:09.098Z,28.95
2023-01-19T10:13:03.893Z,25.35
2023-01-19T10:15:40.052Z,26.80
2023-01-19T10:18:07.043Z,28.25
2023-01-19T10:20:39.976Z,24.48
2023-01-19T10:23:26.380Z,27.88
2023-01-19T10:25:54.454Z,27.35
2023-01-19T10:28:25.343Z,27.77
2023-01-19T10:30:55.309Z,32.72
2023-01-19T10:33:22.590Z,33.13
2023-01-19T10:35:50.574Z,26.00
2023-01-19T10:38:22.360Z,25.88
2023-01-19T10:40:59.473Z,30.52
2023-01-19T10:43:40.065Z,29.45
2023-01-19T10:46:17.271Z,31.92
2023-01-19T10:48:47.811Z,38.05
2023-01-19T10:51:15.036Z,31.52
2023-01-19T10:53:53.289Z,26.58
2023-01-19T10:56:35.849Z,33.35
2023-01-19T10:59:05.664Z,40.75
2023-01-19T11:01:37.109Z,32.58
2023-01-19T11:04:22.762Z,33.25
2023-01-19T11:06:49.757Z,33.70
2023-01-19T11:09:21.378Z,36.90
2023-01-19T11:11:51.738Z,31.73
2023-01-19T11:14:24.296Z,35.85
2023-01-19T11:16:58.851Z,31.77
2023-01-19T11:19:32.359Z,39.75
2023-01-19T11:22:22.830Z,33.47
2023-01-19T11:24:50.322Z,36.33
2023-01-19T11:27:19.805Z,36.97
2023-01-19T11:29:50.556Z,37.17
2023-01-19T11:32:22.563Z,34.40
2023-01-19T11:34:50.121Z,37.78
2023-01-19T11:37:17.347Z,35.50
2023-01-19T11:39:50.311Z,40.92
2023-01-19T11:42:19.213Z,37.85
2023-01-19T11:44:58.490Z,38.78
2023-01-19T11:47:36.000Z,50.92
2023-01-19T11:50:15.935Z,44.95
2023-01-19T11:52:53.415Z,40.17
2023-01-19T11:55:24.095Z,39.08
2023-01-19T11:57:54.524Z,55.63
2023-01-19T12:00:57.431Z,53.90
2023-01-19T12:03:33.253Z,48.00
2023-01-19T12:06:23.129Z,49.72
2023-01-19T12:09:00.705Z,46.42
2023-01-19T12:11:37.104Z,37.72
2023-01-19T12:14:09.280Z,45.58
2023-01-19T12:16:39.012Z,39.40
2023-01-19T12:19:14.934Z,41.63
2023-01-19T12:21:42.500Z,41.72
2023-01-19T12:24:23.703Z,35.45
2023-01-19T12:26:58.920Z,41.65
2023-01-19T12:29:32.749Z,37.55
2023-01-19T12:32:14.628Z,37.97
2023-01-19T12:34:49.684Z,36.83
2023-01-19T12:37:35.509Z,36.88
2023-01-19T12:40:28.029Z,37.35
2023-01-19T12:43:06.055Z,31.90
2023-01-19T12:45:38.028Z,31.92
2023-01-19T12:48:06.932Z,31.52
2023-01-19T12:50:38.265Z,37.83
2023-01-19T12:53:17.462Z,39.85
2023-01-19T12:55:46.962Z,51.72
2023-01-19T12:58:21.672Z,39.60
2023-01-19T13:00:51.408Z,46.65
2023-01-19T13:03:18.342Z,37.03
2023-01-19T13:05:50.284Z,33.17
2023-01-19T13:08:19.703Z,35.70
2023-01-19T13:11:10.678Z,46.10
2023-01-19T13:13:47.981Z,31.02
2023-01-19T13:16:27.558Z,36.75
2023-01-19T13:19:09.607Z,32.72
2023-01-19T13:21:44.844Z,30.35
2023-01-19T13:24:17.759Z,32.33
2023-01-19T13:26:50.748Z,31.50
2023-01-19T13:29:26.875Z,28.60
2023-01-19T13:31:56.280Z,30.75
2023-01-19T13:34:26.288Z,38.40
2023-01-19T13:36:56.176Z,30.98
2023-01-19T13:39:37.112Z,31.13
2023-01-19T13:42:28.463Z,35.35
2023-01-19T13:45:00.988Z,31.23
2023-01-19T13:47:43.097Z,36.80
2023-01-19T13:50:20.558Z,27.08
2023-01-19T13:52:48.963Z,29.90
2023-01-19T13:55:16.713Z,27.65
2023-01-19T13:57:46.080Z,29.40
2023-01-19T14:00:14.326Z,33.13
2023-01-19T14:03:01.855Z,32.08
2023-01-19T14:05:34.052Z,36.28
2023-01-19T14:08:05.404Z,40.53
2023-01-19T14:10:34.283Z,34.88
2023-01-19T14:13:11.864Z,44.10
2023-01-19T14:15:40.742Z,43.92
2023-01-19T14:18:14.746Z,42.15
2023-01-19T14:20:51.456Z,33.92
2023-01-19T14:23:39.192Z,31.15
2023-01-19T14:26:26.523Z,25.90
2023-01-19T14:28:54.657Z,27.45
2023-01-19T14:31:28.172Z,26.98
2023-01-19T14:33:58.545Z,26.55
2023-01-19T14:36:27.838Z,19.77
2023-01-19T14:38:58.012Z,26.75
2023-01-19T14:41:43.962Z,24.17
2023-01-19T14:44:16.075Z,25.92
2023-01-19T14:46:48.392Z,26.20
2023-01-19T14:49:39.560Z,28.88
2023-01-19T14:52:19.320Z,31.05
2023-01-19T14:54:46.977Z,32.22
2023-01-19T14:57:14.627Z,30.50
2023-01-19T14:59:42.250Z,28.45
2023-01-19T15:02:09.832Z,27.92
2023-01-19T15:04:36.956Z,28.75
2023-01-19T15:07:04.471Z,34.65
2023-01-19T15:09:31.471Z,30.02
2023-01-19T15:11:59.007Z,27.30
2023-01-19T15:14:27.872Z,28.33
2023-01-19T15:16:54.876Z,30.98
2023-01-19T15:19:22.058Z,28.98
2023-01-19T15:21:48.997Z,31.27
2023-01-19T15:24:17.915Z,24.33
2023-01-19T15:26:45.487Z,21.83
2023-01-19T15:29:26.514Z,26.00
2023-01-19T15:31:53.628Z,22.30
2023-01-19T15:34:20.659Z,23.98
2023-01-19T15:36:47.681Z,26.85
2023-01-19T15:39:14.656Z,25.90
2023-01-19T15:41:41.793Z,26.45
2023-01-19T15:44:11.205Z,29.60
2023-01-19T15:46:38.518Z,29.98
2023-01-19T15:49:05.837Z,24.33
2023-01-19T15:51:33.230Z,27.48
2023-01-19T15:54:00.362Z,22.95
2023-01-19T15:56:29.529Z,22.73
2023-01-19T15:58:58.185Z,24.65
2023-01-19T16:01:31.706Z,23.50
2023-01-19T16:04:01.515Z,24.13
2023-01-19T16:06:29.716Z,24.77
2023-01-19T16:08:59.658Z,25.33
2023-01-19T16:11:28.869Z,21.08
2023-01-19T16:13:56.018Z,21.25
2023-01-19T16:16:24.871Z,21.42
2023-01-19T16:18:52.165Z,21.77
2023-01-19T16:21:19.381Z,37.72
2023-01-19T16:23:46.557Z,20.25
2023-01-19T16:26:29.258Z,19.90
2023-01-19T16:28:57.856Z,22.15
2023-01-19T16:31:25.108Z,17.65
2023-01-19T16:33:52.193Z,18.45
2023-01-19T16:36:26.922Z,20.38
2023-01-19T16:38:54.855Z,20.95
2023-01-19T16:41:21.970Z,19.67
2023-01-19T16:43:56.767Z,16.08
2023-01-19T16:46:35.274Z,14.75
2023-01-19T16:49:05.922Z,13.93
2023-01-19T16:51:33.641Z,14.75
2023-01-19T16:54:00.712Z,17.77
2023-01-19T16:56:27.968Z,16.00
2023-01-19T16:58:59.608Z,15.32
2023-01-19T17:01:28.850Z,15.35
2023-01-19T17:03:56.316Z,16.08
2023-01-19T17:06:24.202Z,17.23
2023-01-19T17:08:52.563Z,16.23
2023-01-19T17:11:27.618Z,14.80
2023-01-19T17:13:54.673Z,18.50
2023-01-19T17:16:22.915Z,14.65
2023-01-19T17:18:50.564Z,13.93
2023-01-19T17:21:19.370Z,16.92
2023-01-19T17:23:48.247Z,13.45
2023-01-19T17:26:16.344Z,14.55
2023-01-19T17:28:43.926Z,14.93
2023-01-19T17:31:16.728Z,15.07
2023-01-19T17:33:45.861Z,13.70
2023-01-19T17:36:15.732Z,14.95
2023-01-19T17:38:43.247Z,16.05
2023-01-19T17:41:17.006Z,15.27
2023-01-19T17:43:44.309Z,18.75
2023-01-19T17:46:12.227Z,16.55
2023-01-19T17:48:39.827Z,21.65
2023-01-19T17:51:09.377Z,17.10
2023-01-19T17:53:38.109Z,20.75
2023-01-19T17:56:06.624Z,17.20
2023-01-19T17:58:33.849Z,24.20
2023-01-19T18:01:14.309Z,18.58
2023-01-19T18:03:41.624Z,21.23
2023-01-19T18:06:09.324Z,25.88
2023-01-19T18:08:39.782Z,22.63
2023-01-19T18:11:07.483Z,20.08
2023-01-19T18:13:34.878Z,22.20
2023-01-19T18:16:08.455Z,20.15
2023-01-19T18:18:36.278Z,19.40
2023-01-19T18:21:09.361Z,17.15
2023-01-19T18:23:36.846Z,24.20
2023-01-19T18:26:06.304Z,16.70
2023-01-19T18:28:33.532Z,19.02
2023-01-19T18:31:00.722Z,21.77
2023-01-19T18:33:28.895Z,18.58
2023-01-19T18:35:55.929Z,23.15
2023-01-19T18:38:22.919Z,32.63
2023-01-19T18:40:49.870Z,26.40
2023-01-19T18:43:16.916Z,26.65
2023-01-19T18:45:48.131Z,22.20
2023-01-19T18:48:17.333Z,22.77
2023-01-19T18:50:44.996Z,22.55
2023-01-19T18:53:11.971Z,20.77
2023-01-19T18:55:39.035Z,22.85
2023-01-19T18:58:07.154Z,24.02
2023-01-19T19:00:34.283Z,25.33
2023-01-19T19:03:01.399Z,22.05
2023-01-19T19:05:28.460Z,21.58
2023-01-19T19:07:55.367Z,20.08
2023-01-19T19:10:22.518Z,24.27
2023-01-19T19:12:49.500Z,27.45
2023-01-19T19:15:16.743Z,27.00
2023-01-19T19:17:43.773Z,26.73
2023-01-19T19:20:11.971Z,24.70
2023-01-19T19:22:39.409Z,27.95
2023-01-19T19:25:06.708Z,24.10
2023-01-19T19:27:33.740Z,25.17
2023-01-19T19:30:00.825Z,36.00
2023-01-19T19:32:27.791Z,27.92
2023-01-19T19:34:56.720Z,27.45
2023-01-19T19:37:23.916Z,30.92
2023-01-19T19:39:51.053Z,31.25
2023-01-19T19:42:18.160Z,27.20
2023-01-19T19:44:45.285Z,21.23
2023-01-19T19:47:12.317Z,23.80
2023-01-19T19:49:39.411Z,22.60
2023-01-19T19:52:06.448Z,25.60
2023-01-19T19:54:33.685Z,21.35
2023-01-19T19:57:01.029Z,25.60
2023-01-19T19:59:28.084Z,27.85
2023-01-19T20:01:55.066Z,26.80
2023-01-19T20:04:23.924Z,31.90
2023-01-19T20:06:51.307Z,28.00
2023-01-19T20:09:18.411Z,23.40
2023-01-19T20:11:46.873Z,28.73
2023-01-19T20:14:16.261Z,26.15
2023-01-19T20:16:43.659Z,20.05
2023-01-19T20:19:11.089Z,20.80
2023-01-19T20:21:41.937Z,22.55
2023-01-19T20:24:13.773Z,29.35
2023-01-19T20:26:44.961Z,26.67
2023-01-19T20:29:12.355Z,21.88
2023-01-19T20:31:43.599Z,27.20
2023-01-19T20:34:13.073Z,22.73
2023-01-19T20:36:41.221Z,32.67
2023-01-19T20:39:10.265Z,31.08
2023-01-19T20:41:43.605Z,26.88
2023-01-19T20:44:23.285Z,32.00
2023-01-19T20:46:50.937Z,34.10
2023-01-19T20:49:18.583Z,30.65
2023-01-19T20:51:47.116Z,26.00
2023-01-19T20:54:16.868Z,25.05
2023-01-19T20:56:44.008Z,27.63
2023-01-19T20:59:11.518Z,35.47
2023-01-19T21:01:39.424Z,33.38
2023-01-19T21:04:06.919Z,27.73
2023-01-19T21:06:34.280Z,31.88
2023-01-19T21:09:01.722Z,29.45
2023-01-19T21:11:29.028Z,25.02
2023-01-19T21:13:56.629Z,26.42
2023-01-19T21:16:25.558Z,29.13
2023-01-19T21:18:52.988Z,28.27
2023-01-19T21:21:29.985Z,23.10
2023-01-19T21:24:02.282Z,21.63
2023-01-19T21:26:30.382Z,32.17
2023-01-19T21:28:58.819Z,22.98
2023-01-19T21:31:27.985Z,22.02
2023-01-19T21:33:58.256Z,30.88
2023-01-19T21:36:25.869Z,18.27
2023-01-19T21:38:55.706Z,21.00
2023-01-19T21:41:23.117Z,25.13
2023-01-19T21:43:50.069Z,24.33
2023-01-19T21:46:18.722Z,27.35
2023-01-19T21:48:46.228Z,16.35
2023-01-19T21:51:14.227Z,15.43
2023-01-19T21:53:41.812Z,22.45
2023-01-19T21:56:10.538Z,31.70
2023-01-19T21:58:37.614Z,16.38
2023-01-19T22:01:07.504Z,18.75
2023-01-19T22:03:34.574Z,23.23
2023-01-19T22:06:08.945Z,22.95
2023-01-19T22:08:36.307Z,16.33
2023-01-19T22:11:06.907Z,16.38
2023-01-19T22:13:35.296Z,15.73
2023-01-19T22:16:03.808Z,17.98
2023-01-19T22:18:31.182Z,16.58
2023-01-19T22:21:08.283Z,17.40
2023-01-19T22:23:35.448Z,15.05
2023-01-19T22:26:02.784Z,15.32
2023-01-19T22:28:29.960Z,16.90
2023-01-19T22:31:10.303Z,16.83
2023-01-19T22:33:37.494Z,16.88
2023-01-19T22:36:10.512Z,15.90
2023-01-19T22:38:39.874Z,14.10
2023-01-19T22:41:30.733Z,16.35
2023-01-19T22:44:02.510Z,14.43
2023-01-19T22:46:32.247Z,15.18
2023-01-19T22:48:59.821Z,18.35
2023-01-19T22:51:28.261Z,18.90
2023-01-19T22:53:55.361Z,18.70
2023-01-19T22:56:25.515Z,13.27
2023-01-19T22:58:53.527Z,15.55
2023-01-19T23:01:23.221Z,12.90
2023-01-19T23:03:50.945Z,13.80
2023-01-19T23:06:20.101Z,12.65
2023-01-19T23:08:47.438Z,11.35
2023-01-19T23:11:15.892Z,11.52
2023-01-19T23:13:43.600Z,13.15
2023-01-19T23:16:11.808Z,12.77
2023-01-19T23:18:40.020Z,13.50
2023-01-19T23:21:13.230Z,13.02
2023-01-19T23:23:40.997Z,13.48
2023-01-19T23:26:13.512Z,12.75
2023-01-19T23:28:41.462Z,14.27
2023-01-19T23:31:24.943Z,13.88
2023-01-19T23:33:54.546Z,14.98
2023-01-19T23:36:23.705Z,15.38
2023-01-19T23:38:55.349Z,13.68
2023-01-19T23:41:23.665Z,13.18
2023-01-19T23:43:51.038Z,11.13
2023-01-19T23:46:19.347Z,18.58
2023-01-19T23:48:46.991Z,18.95
2023-01-19T23:51:26.000Z,10.07
2023-01-19T23:53:53.186Z,10.63
2023-01-19T23:56:24.763Z,15.25
2023-01-19T23:58:59.047Z,13.73
